Latest Weather Observations for Evans Head

IDN60801

Issued at 6:02 am EDT Sunday 16 December 2018 (issued every 10 minutes, with the page automatically refreshed every 10 minutes)

About weather observations | Map of weather stations | Latest weather observations for NSW | Other Formats
Station Details ID: 058212 Name: EVANS HEAD RAAF BOMBING RANGE AWS Lat: -29.18 Lon: 153.40 Height: 62.5 m
Data from the previous 72 hours. | See also: Recent months at Evans Head
Date/Time
EDT
Temp
°C
App
Temp
°C
Dew
Point
°C
Rel
Hum
%
Delta-T
°C
Wind Press
QNH
hPa
Press
MSL
hPa
Rain since
9am
mm
Dir  Spd
km/h
Gust
km/h
Spd
kts
Gust
kts
16/06:00am 22.1 22.3 20.6 91 1.0 N 20 30 11 16 1010.5 1010.2 0.0
16/05:30am 22.2 21.6 20.5 90 1.1 N 24 35 13 19 1009.8 1009.5 0.0
16/05:00am 22.2 22.5 20.7 91 1.0 N 20 33 11 18 1009.5 1009.2 0.0
16/04:30am 21.9 22.1 20.5 92 0.9 N 20 32 11 17 1009.4 1009.1 0.0
16/04:00am 21.8 22.2 20.6 93 0.8 N 19 26 10 14 1009.3 1009.0 0.0
16/03:30am 21.8 22.3 20.8 94 0.7 N 19 33 10 18 1009.4 1009.1 0.0
16/03:00am 22.1 22.9 21.3 95 0.5 N 19 28 10 15 1009.3 1009.0 0.0
16/02:30am 22.3 22.8 21.1 93 0.8 N 20 35 11 19 1009.2 1008.9 0.0
16/02:00am 22.4 22.4 21.0 92 0.9 N 22 35 12 19 1009.8 1009.5 0.0
16/01:30am 22.5 23.5 21.1 92 0.9 N 17 26 9 14 1010.0 1009.7 0.0
16/01:00am 22.3 23.2 20.9 92 0.9 N 17 24 9 13 1010.6 1010.3 0.0
16/12:30am 22.5 22.8 20.8 90 1.1 N 20 33 11 18 1010.7 1010.4 0.0
16/12:00am 22.7 22.3 21.0 90 1.1 N 24 35 13 19 1010.7 1010.4 0.0
 
Date/Time
EDT
Temp
°C
App
Temp
°C
Dew
Point
°C
Rel
Hum
%
Delta-T
°C
Wind Press
QNH
hPa
Press
MSL
hPa
Rain since
9am
mm
Dir  Spd
km/h
Gust
km/h
Spd
kts
Gust
kts
15/11:30pm 22.8 22.9 21.1 90 1.1 N 22 33 12 18 1010.8 1010.5 0.0
15/11:00pm 22.9 22.3 21.2 90 1.1 N 26 37 14 20 1010.5 1010.2 0.0
15/10:33pm 22.8 21.7 21.1 90 1.1 N 28 46 15 25 1010.4 1010.1 0.0
15/10:30pm 22.8 21.7 21.1 90 1.1 N 28 44 15 24 1010.3 1010.0 0.0
15/10:00pm 22.8 22.1 21.1 90 1.1 N 26 39 14 21 1010.1 1009.8 0.0
15/09:30pm 22.8 22.2 21.3 91 1.0 N 26 41 14 22 1009.7 1009.4 0.0
15/09:00pm 22.6 21.1 20.9 90 1.1 N 30 46 16 25 1009.3 1009.0 0.0
15/08:37pm 22.8 21.4 21.1 90 1.1 N 30 48 16 26 1009.0 1008.7 0.0
15/08:30pm 23.0 21.6 21.1 89 1.2 NNW 30 44 16 24 1009.1 1008.8 0.0
15/08:01pm 23.2 21.4 21.1 88 1.4 N 32 52 17 28 1008.1 1007.8 0.0
15/08:00pm 23.2 21.8 21.1 88 1.4 N 30 46 16 25 1008.1 1007.8 0.0
15/07:35pm 23.1 21.1 20.8 87 1.5 N 32 50 17 27 1008.1 1007.8 0.0
15/07:30pm 23.2 21.2 21.1 88 1.4 N 33 48 18 26 1007.8 1007.5 0.0
15/07:00pm 23.3 21.6 21.4 89 1.3 N 32 59 17 32 1007.4 1007.1 0.0
15/06:30pm 23.7 21.5 21.4 87 1.5 N 35 57 19 31 1006.8 1006.5 0.0
15/06:00pm 24.7 22.7 21.8 84 1.9 N 35 59 19 32 1006.7 1006.4 0.0
15/05:30pm 25.3 23.7 21.8 81 2.3 N 33 52 18 28 1006.5 1006.2 0.0
15/05:00pm 26.3 23.0 22.2 78 2.8 N 43 65 23 35 1006.4 1006.1 0.0
15/04:30pm 26.8 24.8 21.8 74 3.3 N 35 56 19 30 1006.4 1006.1 0.0
15/04:03pm 27.5 27.1 22.4 73 3.5 N 28 54 15 29 1006.9 1006.6 0.0
15/04:00pm 27.4 27.4 22.4 74 3.4 NNE 26 48 14 26 1006.9 1006.6 0.0
15/03:30pm 27.5 26.7 22.4 73 3.5 NNE 30 48 16 26 1007.2 1006.9 0.0
15/03:00pm 28.6 28.0 23.3 73 3.6 N 32 50 17 27 1007.3 1007.0 0.0
15/02:31pm 28.5 27.8 23.2 73 3.6 N 32 50 17 27 1007.5 1007.2 0.0
15/02:30pm 28.0 26.7 22.5 72 3.7 NNE 33 50 18 27 1007.4 1007.1 0.0
15/02:00pm 28.1 27.2 22.8 73 3.6 NNE 32 50 17 27 1008.0 1007.7 0.0
15/01:30pm 27.8 27.1 22.5 73 3.6 NNE 30 50 16 27 1008.5 1008.2 0.0
15/01:00pm 28.0 27.0 22.0 70 4.0 NNE 30 50 16 27 1008.7 1008.4 0.0
15/12:31pm 28.4 27.9 22.2 69 4.2 N 28 46 15 25 1008.8 1008.5 0.0
15/12:30pm 28.5 28.2 22.5 70 4.1 N 28 44 15 24 1008.9 1008.6 0.0
15/12:00pm 28.7 28.2 22.9 71 4.0 NNE 30 50 16 27 1009.1 1008.8 0.0
15/11:38am 28.7 28.2 22.2 68 4.4 N 28 46 15 25 1009.3 1009.0 0.0
15/11:30am 28.5 27.7 22.3 69 4.2 N 30 44 16 24 1009.2 1008.9 0.0
15/11:20am 28.8 28.4 22.3 68 4.4 N 28 46 15 25 1009.1 1008.8 0.0
15/11:00am 28.0 28.2 22.0 70 4.0 N 24 43 13 23 1009.4 1009.1 0.0
15/10:30am 28.2 28.5 21.5 67 4.5 N 22 37 12 20 1009.5 1009.2 0.0
15/10:00am 27.5 28.5 21.8 71 3.8 N 19 32 10 17 1009.2 1008.9 0.0
15/09:30am 26.9 28.8 23.4 81 2.4 N 19 30 10 16 1009.0 1008.7 0.0
15/09:00am 25.0 27.0 23.6 92 1.0 N 19 28 10 15 1009.2 1008.9 3.8
15/08:30am 23.6 25.6 22.9 96 0.5 N 17 30 9 16 1008.8 1008.5 3.8
15/08:00am 23.0 24.1 22.3 96 0.5 N 20 32 11 17 1008.6 1008.3 3.8
15/07:30am 22.8 24.7 22.1 96 0.5 N 15 26 8 14 1008.5 1008.2 3.8
15/07:00am 23.1 24.4 22.4 96 0.5 N 19 33 10 18 1008.3 1008.0 3.2
15/06:30am 22.6 23.4 21.8 95 0.5 N 20 30 11 16 1007.8 1007.5 0.8
15/06:00am 22.8 23.7 22.0 95 0.5 N 20 32 11 17 1007.4 1007.1 0.6
15/05:30am 23.0 24.0 22.2 95 0.5 N 20 32 11 17 1007.2 1006.9 0.6
15/05:00am 23.0 24.1 22.3 96 0.5 N 20 32 11 17 1006.8 1006.5 0.6
15/04:30am 22.2 23.0 21.4 95 0.5 N 19 30 10 16 1006.3 1006.0 0.6
15/04:00am 22.0 22.7 21.2 95 0.5 N 19 24 10 13 1005.9 1005.6 0.6
15/03:30am 22.5 23.3 21.8 96 0.5 N 20 28 11 15 1006.3 1006.0 0.6
15/03:00am 22.4 23.7 21.7 96 0.5 N 17 26 9 14 1006.3 1006.0 0.6
15/02:30am 22.4 22.7 21.6 95 0.5 N 22 33 12 18 1006.2 1005.9 0.6
15/02:00am 22.6 23.6 21.8 95 0.5 N 19 28 10 15 1006.1 1005.8 0.6
15/01:30am 23.0 23.7 22.2 95 0.5 N 22 35 12 19 1006.6 1006.3 0.6
15/01:00am 23.2 23.2 22.4 95 0.5 N 26 41 14 22 1007.2 1006.9 0.6
15/12:30am 23.2 23.6 22.4 95 0.5 N 24 41 13 22 1007.3 1007.0 0.6
15/12:00am 23.0 24.1 22.3 96 0.5 N 20 32 11 17 1007.1 1006.8 0.6
 
Date/Time
EDT
Temp
°C
App
Temp
°C
Dew
Point
°C
Rel
Hum
%
Delta-T
°C
Wind Press
QNH
hPa
Press
MSL
hPa
Rain since
9am
mm
Dir  Spd
km/h
Gust
km/h
Spd
kts
Gust
kts
14/11:30pm 22.5 23.3 21.7 95 0.5 NNE 20 30 11 16 1006.9 1006.6 0.6
14/11:00pm 22.4 23.6 21.4 94 0.7 N 17 28 9 15 1007.0 1006.7 0.6
14/10:30pm 22.3 23.8 21.3 94 0.7 N 15 26 8 14 1006.9 1006.6 0.4
14/10:00pm 22.2 24.3 21.0 93 0.8 NNE 11 19 6 10 1006.8 1006.5 0.4
14/09:30pm 22.4 23.1 21.2 93 0.8 N 19 28 10 15 1006.5 1006.2 0.4
14/09:00pm 22.7 24.4 21.7 94 0.7 N 15 20 8 11 1006.2 1005.9 0.4
14/08:30pm 22.9 24.1 21.5 92 0.9 N 17 28 9 15 1006.7 1006.4 0.4
14/08:00pm 23.1 23.4 20.8 87 1.5 N 20 28 11 15 1005.4 1005.1 0.0
14/07:30pm 23.3 22.5 20.8 86 1.6 N 26 43 14 23 1005.5 1005.2 0.0
14/07:00pm 23.7 22.1 20.8 84 1.9 N 30 48 16 26 1004.0 1003.7 0.0
14/06:50pm 23.9 22.8 21.0 84 1.9 N 28 46 15 25 1003.6 1003.3 0.0
14/06:30pm 24.2 22.9 21.3 84 1.9 N 30 43 16 23 1003.6 1003.3 0.0
14/06:00pm 24.5 24.3 21.2 82 2.2 N 24 37 13 20 1003.2 1002.9 0.0
14/05:30pm 24.8 24.7 21.5 82 2.2 NNE 24 41 13 22 1002.9 1002.6 0.0
14/05:00pm 25.5 26.2 21.6 79 2.6 NNE 20 35 11 19 1002.8 1002.5 0.0
14/04:30pm 26.9 25.9 21.2 71 3.8 NNE 28 43 15 23 1002.8 1002.5 0.0
14/04:10pm 28.3 27.1 20.8 63 5.0 N 28 46 15 25 1003.0 1002.7 0.0
14/04:00pm 28.1 27.7 20.9 65 4.8 NNE 24 35 13 19 1003.2 1002.9 0.0
14/03:30pm 29.3 27.8 20.2 58 6.0 N 28 43 15 23 1003.2 1002.9 0.0
14/03:00pm 29.5 28.9 20.4 58 6.0 N 24 39 13 21 1003.4 1003.1 0.0
14/02:30pm 30.5 31.6 21.3 58 6.2 NNE 17 30 9 16 1003.6 1003.3 0.0
14/02:00pm 29.4 31.0 22.1 65 5.0 N 17 26 9 14 1004.1 1003.8 0.0
14/01:30pm 30.8 33.5 23.5 65 5.1 N 15 26 8 14 1004.3 1004.0 0.0
14/01:00pm 28.9 30.7 22.6 69 4.3 N 17 26 9 14 1004.2 1003.9 0.0
14/12:30pm 27.5 28.3 21.8 71 3.8 N 20 28 11 15 1004.3 1004.0 0.0
14/12:00pm 29.1 30.5 22.8 69 4.3 N 20 35 11 19 1004.4 1004.1 0.0
14/11:30am 27.3 28.6 22.3 74 3.4 NNW 19 30 10 16 1004.6 1004.3 0.0
14/11:00am 27.4 29.2 22.6 75 3.3 N 17 26 9 14 1004.7 1004.4 0.0
14/10:30am 26.1 29.4 22.6 81 2.4 NNW 9 17 5 9 1005.0 1004.7 0.0
14/10:00am 24.5 27.1 22.0 86 1.7 NNW 11 17 6 9 1005.2 1004.9 0.0
14/09:30am 24.5 27.2 22.2 87 1.5 NNW 11 17 6 9 1004.9 1004.6 0.0
14/09:00am 23.4 25.5 21.7 90 1.1 N 13 22 7 12 1004.9 1004.6 0.8
14/08:30am 22.5 23.5 21.1 92 0.9 N 17 26 9 14 1004.9 1004.6 0.8
14/08:00am 22.1 24.2 20.9 93 0.8 N 11 17 6 9 1004.9 1004.6 0.8
14/07:30am 21.4 23.6 20.4 94 0.6 N 9 13 5 7 1004.6 1004.3 0.8
14/07:00am 21.1 23.2 20.1 94 0.6 NNE 9 11 5 6 1004.5 1004.2 0.8
14/06:30am 21.0 23.0 20.0 94 0.6 N 9 11 5 6 1004.4 1004.1 0.8
14/06:00am 20.8 23.0 19.6 93 0.8 NW 7 9 4 5 1004.0 1003.7 0.8
14/05:30am 20.8 22.7 19.8 94 0.6 NNW 9 11 5 6 1003.9 1003.6 0.8
14/05:00am 20.9 22.9 19.9 94 0.6 NW 9 11 5 6 1003.8 1003.5 0.8
14/04:30am 20.9 23.1 19.7 93 0.8 NW 7 11 4 6 1003.3 1003.0 0.8
14/04:00am 21.1 23.6 19.9 93 0.8 NW 6 9 3 5 1003.3 1003.0 0.8
14/03:30am 21.1 23.5 20.1 94 0.6 NW 7 9 4 5 1003.2 1002.9 0.8
14/03:00am 21.1 22.4 20.1 94 0.6 NNW 13 17 7 9 1002.8 1002.5 0.8
14/02:30am 21.1 22.4 20.1 94 0.6 NNW 13 22 7 12 1003.4 1003.1 0.8
14/02:00am 21.1 21.5 19.9 93 0.8 N 17 22 9 12 1003.8 1003.5 0.6
14/01:30am 21.3 23.0 20.1 93 0.8 NW 11 19 6 10 1004.3 1004.0 0.4
14/01:00am 21.4 23.0 20.0 92 0.9 NNW 11 15 6 8 1004.9 1004.6 0.4
14/12:30am 21.8 24.0 20.4 92 0.9 NW 9 11 5 6 1005.4 1005.1 0.4
14/12:00am 22.0 24.4 20.1 89 1.2 WNW 7 7 4 4 1005.5 1005.2 0.2
 
Date/Time
EDT
Temp
°C
App
Temp
°C
Dew
Point
°C
Rel
Hum
%
Delta-T
°C
Wind Press
QNH
hPa
Press
MSL
hPa
Rain since
9am
mm
Dir  Spd
km/h
Gust
km/h
Spd
kts
Gust
kts
13/11:30pm 22.0 24.6 20.1 89 1.2 WNW 6 7 3 4 1006.1 1005.8 0.2
13/11:00pm 22.3 24.8 19.8 86 1.6 NE 6 7 3 4 1006.3 1006.0 0.2
13/10:30pm 22.6 24.8 19.6 83 1.9 ENE 7 9 4 5 1006.3 1006.0 0.2
13/10:00pm 23.2 26.7 19.6 80 2.3 CALM 0 6 0 3 1006.3 1006.0 0.2
13/09:30pm 23.7 25.8 19.4 77 2.8 WSW 7 13 4 7 1005.9 1005.6 0.0
13/09:00pm 23.3 23.6 19.7 80 2.3 NNW 17 28 9 15 1004.7 1004.4 0.0
13/08:30pm 23.4 22.5 19.8 80 2.3 N 24 35 13 19 1004.1 1003.8 0.0
13/08:00pm 23.7 23.5 19.4 77 2.8 N 19 28 10 15 1003.7 1003.4 0.0
13/07:30pm 23.9 23.5 19.4 76 2.9 NNW 20 39 11 21 1003.4 1003.1 0.0
13/07:00pm 24.0 22.5 19.5 76 2.9 N 26 39 14 21 1002.8 1002.5 0.0
13/06:30pm 24.4 22.0 19.9 76 2.9 N 32 54 17 29 1002.2 1001.9 0.0
13/06:00pm 25.1 23.1 19.9 73 3.4 N 30 52 16 28 1002.0 1001.7 0.0
13/05:30pm 25.9 23.7 20.7 73 3.4 N 33 57 18 31 1001.6 1001.3 0.0
13/05:13pm 25.1 23.0 19.7 72 3.5 N 30 50 16 27 1001.5 1001.2 0.0
13/05:00pm 26.2 24.4 20.3 70 3.9 N 30 46 16 25 1001.5 1001.2 0.0
13/04:30pm 25.3 22.5 20.3 74 3.3 N 35 59 19 32 1001.7 1001.4 0.0
13/04:00pm 25.9 23.0 20.0 70 3.9 N 35 54 19 29 1002.0 1001.7 0.0
13/03:30pm 24.7 22.5 19.5 73 3.3 N 30 48 16 26 1002.9 1002.6 0.0
13/03:00pm 25.4 23.7 19.8 71 3.6 N 28 46 15 25 1003.8 1003.5 0.0
13/02:48pm 25.7 23.9 19.6 69 3.9 N 28 46 15 25 1004.1 1003.8 0.0
13/02:30pm 25.5 24.2 19.9 71 3.6 N 26 48 14 26 1004.3 1004.0 0.0
13/02:16pm 25.6 23.5 19.0 67 4.2 N 28 46 15 25 1004.6 1004.3 0.0
13/02:00pm 26.7 25.1 19.3 64 4.8 N 26 43 14 23 1004.9 1004.6 0.0
13/01:30pm 28.4 26.6 19.6 59 5.7 NNE 28 43 15 23 1005.4 1005.1 0.0
13/01:00pm 29.6 28.9 20.2 57 6.2 N 24 35 13 19 1005.8 1005.5 0.0
13/12:30pm 29.3 28.9 19.3 55 6.5 N 20 37 11 20 1006.3 1006.0 0.0
13/12:00pm 30.6 31.5 20.8 56 6.6 N 17 28 9 15 1006.9 1006.6 0.0
13/11:30am 28.3 28.3 19.0 57 6.0 N 17 28 9 15 1007.3 1007.0 0.0
13/11:00am 28.0 28.8 19.8 61 5.4 N 15 24 8 13 1007.8 1007.5 0.0
13/10:30am 26.6 27.8 19.0 63 4.9 NNW 11 19 6 10 1008.2 1007.9 0.0
13/10:00am 27.1 28.8 20.2 66 4.5 NW 11 17 6 9 1008.6 1008.3 0.0
13/09:30am 24.5 26.8 19.8 75 3.0 NNW 7 15 4 8 1009.0 1008.7 0.0
13/09:00am 23.9 25.9 20.0 79 2.5 NW 9 13 5 7 1009.3 1009.0 1.4
13/08:30am 23.0 24.9 19.8 82 2.1 N 9 13 5 7 1009.3 1009.0 1.4
13/08:00am 22.0 24.3 19.5 86 1.6 NW 6 7 3 4 1009.5 1009.2 1.4
13/07:30am 21.2 23.7 19.8 92 0.9 WNW 6 7 3 4 1009.6 1009.3 1.4
13/07:00am 20.4 22.6 19.2 93 0.8 WNW 6 7 3 4 1009.5 1009.2 1.4
13/06:30am 19.7 21.5 18.7 94 0.6 NW 7 9 4 5 1009.1 1008.8 1.4

Other Formats:

Comma delimited format used in spreadsheet applications
http://www.bom.gov.au/fwo/IDN60801/IDN60801.94598.axf

JavaScript Object Notation format (JSON) in row-major order
http://www.bom.gov.au/fwo/IDN60801/IDN60801.94598.json